Aviation Digital Data Service (ADDS)

Output produced by METARs form (1832 UTC 16 October 2021)
found at http://www.aviationweather.gov/metar/data/
 
METAR text: RJEC 161100Z 19011G22KT 9999 FEW005 SCT050 BKN100 10/06 Q1006
Conditions at: RJEC (ASAHIKAWA AIRPOR, JP) observed 1100 UTC 16 October 2021
Temperature: 10.0°C (50°F)
Dewpoint: 6.0°C (43°F) [RH = 76%]
Pressure (altimeter): 29.70 inches Hg (1006.0 mb)
Winds: from the S (190 degrees) at 13 MPH (11 knots; 5.7 m/s)
gusting to 25 MPH (22 knots; 11.3 m/s)
Visibility: 6 or more miles (10+ km)
Ceiling: 10000 feet AGL
Clouds: few clouds at 500 feet AGL
scattered clouds at 5000 feet AGL
broken clouds at 10000 feet AGL
Weather: no significant weather observed at this time

METAR text: RJEC 161000Z 18013KT 160V220 9999 FEW005 SCT020 BKN090 09/05 Q1008
Conditions at: RJEC (ASAHIKAWA AIRPOR, JP) observed 1000 UTC 16 October 2021
Temperature: 9.0°C (48°F)
Dewpoint: 5.0°C (41°F) [RH = 76%]
Pressure (altimeter): 29.76 inches Hg (1008.0 mb)
Winds: from the S (180 degrees) at 15 MPH (13 knots; 6.7 m/s)
Visibility: 6 or more miles (10+ km)
Ceiling: 9000 feet AGL
Clouds: few clouds at 500 feet AGL
scattered clouds at 2000 feet AGL
broken clouds at 9000 feet AGL
Weather: no significant weather observed at this time

METAR text: RJEC 160900Z 18013KT 9999 FEW008 SCT030 BKN100 09/05 Q1009
Conditions at: RJEC (ASAHIKAWA AIRPOR, JP) observed 0900 UTC 16 October 2021
Temperature: 9.0°C (48°F)
Dewpoint: 5.0°C (41°F) [RH = 76%]
Pressure (altimeter): 29.79 inches Hg (1009.0 mb)
Winds: from the S (180 degrees) at 15 MPH (13 knots; 6.7 m/s)
Visibility: 6 or more miles (10+ km)
Ceiling: 10000 feet AGL
Clouds: few clouds at 800 feet AGL
scattered clouds at 3000 feet AGL
broken clouds at 10000 feet AGL
Weather: no significant weather observed at this time

METAR text: RJEC 160800Z 18014KT 9999 FEW008 SCT030 BKN050 09/05 Q1010
Conditions at: RJEC (ASAHIKAWA AIRPOR, JP) observed 0800 UTC 16 October 2021
Temperature: 9.0°C (48°F)
Dewpoint: 5.0°C (41°F) [RH = 76%]
Pressure (altimeter): 29.82 inches Hg (1010.0 mb)
Winds: from the S (180 degrees) at 16 MPH (14 knots; 7.2 m/s)
Visibility: 6 or more miles (10+ km)
Ceiling: 5000 feet AGL
Clouds: few clouds at 800 feet AGL
scattered clouds at 3000 feet AGL
broken clouds at 5000 feet AGL
Weather: no significant weather observed at this time

METAR text: RJEC 160700Z 19013KT 9999 FEW010 SCT030 BKN050 10/05 Q1011
Conditions at: RJEC (ASAHIKAWA AIRPOR, JP) observed 0700 UTC 16 October 2021
Temperature: 10.0°C (50°F)
Dewpoint: 5.0°C (41°F) [RH = 71%]
Pressure (altimeter): 29.85 inches Hg (1011.0 mb)
Winds: from the S (190 degrees) at 15 MPH (13 knots; 6.7 m/s)
Visibility: 6 or more miles (10+ km)
Ceiling: 5000 feet AGL
Clouds: few clouds at 1000 feet AGL
scattered clouds at 3000 feet AGL
broken clouds at 5000 feet AGL
Weather: no significant weather observed at this time

METAR text: RJEC 160600Z 18012KT 160V220 9999 FEW020 SCT040 BKN/// 11/05 Q1012
Conditions at: RJEC (ASAHIKAWA AIRPOR, JP) observed 0600 UTC 16 October 2021
Temperature: 11.0°C (52°F)
Dewpoint: 5.0°C (41°F) [RH = 66%]
Pressure (altimeter): 29.88 inches Hg (1012.0 mb)
Winds: from the S (180 degrees) at 14 MPH (12 knots; 6.2 m/s)
Visibility: 6 or more miles (10+ km)
Ceiling: at least 12,000 feet AGL
Clouds: few clouds at 2000 feet AGL
scattered clouds at 4000 feet AGL
Weather: no significant weather observed at this time

METAR text: RJEC 160500Z 18011KT 150V220 9999 FEW030 SCT050 BKN/// 12/05 Q1012
Conditions at: RJEC (ASAHIKAWA AIRPOR, JP) observed 0500 UTC 16 October 2021
Temperature: 12.0°C (54°F)
Dewpoint: 5.0°C (41°F) [RH = 62%]
Pressure (altimeter): 29.88 inches Hg (1012.0 mb)
Winds: from the S (180 degrees) at 13 MPH (11 knots; 5.7 m/s)
Visibility: 6 or more miles (10+ km)
Ceiling: at least 12,000 feet AGL
Clouds: few clouds at 3000 feet AGL
scattered clouds at 5000 feet AGL
Weather: no significant weather observed at this time

METAR text: RJEC 160400Z 19014KT 9999 FEW030 BKN/// 12/05 Q1013
Conditions at: RJEC (ASAHIKAWA AIRPOR, JP) observed 0400 UTC 16 October 2021
Temperature: 12.0°C (54°F)
Dewpoint: 5.0°C (41°F) [RH = 62%]
Pressure (altimeter): 29.91 inches Hg (1013.0 mb)
Winds: from the S (190 degrees) at 16 MPH (14 knots; 7.2 m/s)
Visibility: 6 or more miles (10+ km)
Ceiling: at least 12,000 feet AGL
Clouds: few clouds at 3000 feet AGL
Weather: no significant weather observed at this time

METAR text: RJEC 160300Z 18015KT 9999 FEW030 BKN/// 12/04 Q1014
Conditions at: RJEC (ASAHIKAWA AIRPOR, JP) observed 0300 UTC 16 October 2021
Temperature: 12.0°C (54°F)
Dewpoint: 4.0°C (39°F) [RH = 58%]
Pressure (altimeter): 29.94 inches Hg (1014.0 mb)
Winds: from the S (180 degrees) at 17 MPH (15 knots; 7.7 m/s)
Visibility: 6 or more miles (10+ km)
Ceiling: at least 12,000 feet AGL
Clouds: few clouds at 3000 feet AGL
Weather: no significant weather observed at this time

METAR text: RJEC 160200Z 19015G25KT 9999 FEW030 BKN/// 12/03 Q1015
Conditions at: RJEC (ASAHIKAWA AIRPOR, JP) observed 0200 UTC 16 October 2021
Temperature: 12.0°C (54°F)
Dewpoint: 3.0°C (37°F) [RH = 54%]
Pressure (altimeter): 29.97 inches Hg (1015.0 mb)
Winds: from the S (190 degrees) at 17 MPH (15 knots; 7.7 m/s)
gusting to 29 MPH (25 knots; 12.9 m/s)
Visibility: 6 or more miles (10+ km)
Ceiling: at least 12,000 feet AGL
Clouds: few clouds at 3000 feet AGL
Weather: no significant weather observed at this time

METAR text: RJEC 160100Z 16009KT 9999 FEW030 BKN/// 11/05 Q1017
Conditions at: RJEC (ASAHIKAWA AIRPOR, JP) observed 0100 UTC 16 October 2021
Temperature: 11.0°C (52°F)
Dewpoint: 5.0°C (41°F) [RH = 66%]
Pressure (altimeter): 30.03 inches Hg (1017.0 mb)
Winds: from the SSE (160 degrees) at 10 MPH (9 knots; 4.6 m/s)
Visibility: 6 or more miles (10+ km)
Ceiling: at least 12,000 feet AGL
Clouds: few clouds at 3000 feet AGL
Weather: no significant weather observed at this time

METAR text: RJEC 160000Z 17004KT 110V220 9999 FEW008 BKN/// 08/05 Q1018
Conditions at: RJEC (ASAHIKAWA AIRPOR, JP) observed 0000 UTC 16 October 2021
Temperature: 8.0°C (46°F)
Dewpoint: 5.0°C (41°F) [RH = 81%]
Pressure (altimeter): 30.06 inches Hg (1018.0 mb)
Winds: from the S (170 degrees) at 5 MPH (4 knots; 2.1 m/s)
Visibility: 6 or more miles (10+ km)
Ceiling: at least 12,000 feet AGL
Clouds: few clouds at 800 feet AGL
Weather: no significant weather observed at this time

METAR text: RJEC 152300Z VRB01KT 9999 FEW001 BKN/// 05/03 Q1019
Conditions at: RJEC (ASAHIKAWA AIRPOR, JP) observed 2300 UTC 15 October 2021
Temperature: 5.0°C (41°F)
Dewpoint: 3.0°C (37°F) [RH = 87%]
Pressure (altimeter): 30.09 inches Hg (1019.0 mb)
Winds: variable direction winds at 1 MPH (1 knots; 0.5 m/s)
Visibility: 6 or more miles (10+ km)
Ceiling: at least 12,000 feet AGL
Clouds: few clouds at 100 feet AGL
Weather: no significant weather observed at this time

METAR text: RJEC 152200Z VRB01KT 9999 FEW001 SCT050 BKN/// 03/02 Q1019
Conditions at: RJEC (ASAHIKAWA AIRPOR, JP) observed 2200 UTC 15 October 2021
Temperature: 3.0°C (37°F)
Dewpoint: 2.0°C (36°F) [RH = 93%]
Pressure (altimeter): 30.09 inches Hg (1019.0 mb)
Winds: variable direction winds at 1 MPH (1 knots; 0.5 m/s)
Visibility: 6 or more miles (10+ km)
Ceiling: at least 12,000 feet AGL
Clouds: few clouds at 100 feet AGL
scattered clouds at 5000 feet AGL
Weather: no significant weather observed at this time

METAR text: RJEC 152140Z 00000KT 9999 PRFG FEW001 SCT040 BKN/// 03/02 Q1019 RMK 1ST001 3CU040 A3010 FG N
Conditions at: RJEC (ASAHIKAWA AIRPOR, JP) observed 2140 UTC 15 October 2021
Temperature: 3.0°C (37°F)
Dewpoint: 2.0°C (36°F) [RH = 93%]
Pressure (altimeter): 30.09 inches Hg (1019.0 mb)
Winds: calm
Visibility: 6 or more miles (10+ km)
Ceiling: at least 12,000 feet AGL
Clouds: few clouds at 100 feet AGL
scattered clouds at 4000 feet AGL
Weather: PRFG  (partial fog)

METAR text: RJEC 151100Z 29006KT 9999 FEW020 SCT/// 08/04 Q1018
Conditions at: RJEC (ASAHIKAWA AIRPOR, JP) observed 1100 UTC 15 October 2021
Temperature: 8.0°C (46°F)
Dewpoint: 4.0°C (39°F) [RH = 76%]
Pressure (altimeter): 30.06 inches Hg (1018.0 mb)
Winds: from the WNW (290 degrees) at 7 MPH (6 knots; 3.1 m/s)
Visibility: 6 or more miles (10+ km)
Ceiling: at least 12,000 feet AGL
Clouds: few clouds at 2000 feet AGL
Weather: no significant weather observed at this time

METAR text: RJEC 151000Z 33004KT 9999 FEW020 SCT/// 07/04 Q1017
Conditions at: RJEC (ASAHIKAWA AIRPOR, JP) observed 1000 UTC 15 October 2021
Temperature: 7.0°C (45°F)
Dewpoint: 4.0°C (39°F) [RH = 81%]
Pressure (altimeter): 30.03 inches Hg (1017.0 mb)
Winds: from the NNW (330 degrees) at 5 MPH (4 knots; 2.1 m/s)
Visibility: 6 or more miles (10+ km)
Ceiling: at least 12,000 feet AGL
Clouds: few clouds at 2000 feet AGL
Weather: no significant weather observed at this time

METAR text: RJEC 150900Z 30006KT 9999 FEW020 SCT/// 09/05 Q1016
Conditions at: RJEC (ASAHIKAWA AIRPOR, JP) observed 0900 UTC 15 October 2021
Temperature: 9.0°C (48°F)
Dewpoint: 5.0°C (41°F) [RH = 76%]
Pressure (altimeter): 30.00 inches Hg (1016.0 mb)
Winds: from the WNW (300 degrees) at 7 MPH (6 knots; 3.1 m/s)
Visibility: 6 or more miles (10+ km)
Ceiling: at least 12,000 feet AGL
Clouds: few clouds at 2000 feet AGL
Weather: no significant weather observed at this time

METAR text: RJEC 150800Z 31009KT 9999 FEW020 SCT/// 10/05 Q1015
Conditions at: RJEC (ASAHIKAWA AIRPOR, JP) observed 0800 UTC 15 October 2021
Temperature: 10.0°C (50°F)
Dewpoint: 5.0°C (41°F) [RH = 71%]
Pressure (altimeter): 29.97 inches Hg (1015.0 mb)
Winds: from the NW (310 degrees) at 10 MPH (9 knots; 4.6 m/s)
Visibility: 6 or more miles (10+ km)
Ceiling: at least 12,000 feet AGL
Clouds: few clouds at 2000 feet AGL
Weather: no significant weather observed at this time

METAR text: RJEC 150700Z 28009KT 9999 FEW020 SCT040 BKN/// 13/07 Q1014
Conditions at: RJEC (ASAHIKAWA AIRPOR, JP) observed 0700 UTC 15 October 2021
Temperature: 13.0°C (55°F)
Dewpoint: 7.0°C (45°F) [RH = 67%]
Pressure (altimeter): 29.94 inches Hg (1014.0 mb)
Winds: from the W (280 degrees) at 10 MPH (9 knots; 4.6 m/s)
Visibility: 6 or more miles (10+ km)
Ceiling: at least 12,000 feet AGL
Clouds: few clouds at 2000 feet AGL
scattered clouds at 4000 feet AGL
Weather: no significant weather observed at this time

Forecast for: RJEC (ASAHIKAWA AIRPOR, JP)
Text: TAF RJEC 161705Z 1618/1800 28011KT 9999 FEW008 BKN020
Forecast period: 1800 UTC 16 October 2021 to 0600 UTC 17 October 2021
Forecast type: FROM: standard forecast or significant change
Winds: from the W (280 degrees) at 13 MPH (11 knots; 5.7 m/s)
Visibility: 6 or more miles (10+ km)
Ceiling: 2000 feet AGL
Clouds: few clouds at 800 feet AGL
broken clouds at 2000 feet AGL
Weather: no significant weather forecast for this period
Text: BECMG 1706/1709 17007KT
Forecast period: 0600 UTC 17 October 2021 to 0000 UTC 18 October 2021
Forecast type: BECOMING: Conditions expected to become as follows by 0900 UTC 17 October 2021
Winds: from the S (170 degrees) at 8 MPH (7 knots; 3.6 m/s)
Visibility: 6 or more miles (10+ km)
Ceiling: 2000 feet AGL
Clouds: few clouds at 800 feet AGL
broken clouds at 2000 feet AGL
Weather: no significant weather forecast for this period